Flight Track Log - Related Links

Times and Time Zones

All times are in EDT time to prevent confusion due to time zone crossing. See the EJA929 flight status page for this flight to view local times or setup timezone preferences in your user account.

Time Position Orientation Groundspeed Altitude Reporting Facility
EDT Latitude Longitude Course Direction KTS MPH feet Rate Location/Type
Wed 10:13:14 AM 29.5439 -98.4903 307° West 169 194 1,700  Level Houston Center
Wed 10:13:56 AM 29.5686 -98.5281 307° West 208 239 4,600 1,922 Climbing Houston Center
Wed 10:14:57 AM 29.6086 -98.5761 314° West 219 252 5,000 911 Climbing Houston Center
Wed 10:15:15 AM 29.6253 -98.5850 335° Northwest 224 258 5,800 2,909 Climbing Houston Center
Wed 10:16:03 AM 29.6697 -98.5569 29° Northeast 253 291 8,200 2,951 Climbing Houston Center
Wed 10:16:16 AM 29.6831 -98.5442 40° Northeast 249 287 8,800 1,714 Climbing Houston Center
Wed 10:16:52 AM 29.7133 -98.5036 49° Northeast 292 336 9,600 1,452 Climbing Houston Center
Wed 10:17:18 AM 29.7164 -98.4658 85° East 296 341 10,300 2,455 Climbing Houston Center
Wed 10:18:20 AM 29.7044 -98.3536 97° East 323 372 13,200 2,710 Climbing Houston Center
Wed 10:19:22 AM 29.6900 -98.2483 99° East 331 381 15,900 1,839 Climbing Houston Center
Wed 10:20:24 AM 29.6706 -98.1392 102° East 349 402 17,000 537 Climbing Houston Center
Wed 10:21:25 AM 29.6475 -97.9953 100° East 422 486 17,000  Level Houston Center
Wed 10:22:27 AM 29.6236 -97.8522 101° East 454 522 17,000 -48 Level Houston Center
Wed 10:23:29 AM 29.6008 -97.7150 101° East 469 540 16,900 -48 Descending Houston Center
Wed 10:24:31 AM 29.5747 -97.5689 102° East 470 541 16,900  Level Houston Center
Wed 10:25:33 AM 29.5503 -97.4219 101° East 468 539 16,900 48 Level Houston Center
Wed 10:26:35 AM 29.5194 -97.2436 101° East 473 544 17,000 49 Climbing Houston Center
Wed 10:27:36 AM 29.4936 -97.0961 101° East 473 544 17,000  Level Houston Center
Wed 10:28:38 AM 29.4675 -96.9461 101° East 474 545 17,000  Level Houston Center
Wed 10:29:40 AM 29.4414 -96.7936 101° East 473 544 17,000  Level Houston Center
Wed 10:30:42 AM 29.4136 -96.6444 102° East 471 542 17,000 -387 Level Houston Center
Wed 10:31:44 AM 29.3883 -96.4983 101° East 465 535 16,200 -978 Descending Houston Center
Wed 10:32:14 AM 29.3742 -96.4206 102° East 460 529 15,500 -1,258 Descending Houston Center
Wed 10:32:46 AM 29.3617 -96.3547 102° East 461 531 14,900 -1,340 Descending Houston Center
Wed 10:33:48 AM 29.3361 -96.2128 102° East 454 522 13,400 -1,417 Descending Houston Center
Wed 10:33:58 AM 29.3281 -96.1767 104° East 410 472 13,200 -1,082 Descending Houston Center
Wed 10:34:49 AM 29.3156 -96.0975 100° East 375 432 12,300 -982 Descending Houston Center
Wed 10:34:53 AM 29.3150 -96.0728 91° East 339 390 12,300 -387 Level Houston Center
Wed 10:35:51 AM 29.3478 -95.9869 66° East 337 388 11,900 -393 Descending Houston Center
Wed 10:35:54 AM 29.3553 -95.9819 30° Northeast 321 369 11,900 -1,839 Level Houston Center
Wed 10:36:53 AM 29.4142 -95.9203 42° Northeast 317 365 10,000 -1,869 Descending Houston Center
Wed 10:36:55 AM 29.4208 -95.9144 37° Northeast 321 369 10,000 -97 Level Houston Center
Wed 10:37:55 AM 29.4789 -95.8514 43° Northeast 319 367 9,900 -98 Descending Houston Center
Wed 10:37:56 AM 29.4856 -95.8375 61° Northeast 315 362 9,900 -774 Level Houston Center
Wed 10:38:57 AM 29.5169 -95.7428 69° East 312 359 9,100 -836 Descending Houston Center
Wed 10:39:58 AM 29.5483 -95.6478 69° East 318 366 8,200 -871 Descending Houston Center
Wed 10:39:59 AM 29.5431 -95.6639 249° West 318 366 8,200 -762 Level Houston Center
Wed 10:41:01 AM 29.5503 -95.5522 86° East 306 352 7,400 -1,041 Descending Houston Center
Wed 10:42:00 AM 29.5339 -95.4647 102° East 291 335 6,100 -1,355 Descending Houston Center
Wed 10:42:03 AM 29.5336 -95.4611 95° East 292 336 6,000 -98 Descending Houston Center
Wed 10:43:01 AM 29.5169 -95.3706 102° East 283 326 6,000 -98 Level Houston Center
Wed 10:43:04 AM 29.5181 -95.3728 300° West 287 330 5,900 -462 Descending Houston Center
Wed 10:44:06 AM 29.5042 -95.2969 102° East 244 281 5,500 -375 Descending Houston Center
Wed 10:44:08 AM 29.5031 -95.2883 98° East 225 259 5,500 -1,355 Level Houston Center
Wed 10:45:08 AM 29.4822 -95.2297 112° Southeast 231 266 4,100 -1,377 Descending Houston Center
Wed 10:45:09 AM 29.4758 -95.2219 133° Southeast 223 257 4,100 -97 Level Houston Center
Wed 10:46:10 AM 29.4422 -95.1542 120° Southeast 228 262 4,000 -439 Descending Houston Center
Wed 10:47:12 AM 29.4672 -95.1033 61° Northeast 212 244 3,200 -727 Descending Houston Center
Wed 10:47:16 AM 29.4733 -95.1047 349° North 189 217 3,200 -1,119 Level Houston Center
Wed 10:48:11 AM 29.5156 -95.1306 332° Northwest 189 217 2,100 -1,241 Descending Houston Center
Wed 10:48:14 AM 29.5144 -95.1292 133° Southeast 198 228 2,000  Descending Houston Center
Wed 10:49:12 AM 29.5528 -95.1694 318° Northwest 178 205 2,100  Climbing Houston Center
Wed 10:49:16 AM 29.5514 -95.1678 134° Southeast 189 217 2,000 -590 Descending Houston Center
Wed 10:50:13 AM 29.5883 -95.2131 313° West 175 201 1,500 -590 Descending Houston Center
Wed 10:50:17 AM 29.5861 -95.2100 130° Southeast 182 209 1,400 -787 Descending Houston Center
Wed 10:51:14 AM 29.6169 -95.2481 313° West 143 165 700 -774 Descending Houston Center
Wed 10:51:19 AM 29.6178 -95.2467 55° Northeast 171 197 600 -1,200 Descending Houston Center

Login

Don't have an account? Register now (free) for customized features, flight alerts, and more!